Time,TemperatureF,DewpointF,PressureIn,WindDirection,WindDirectionDegrees,WindSpeedMPH,WindSpeedGustMPH,Humidity,HourlyPrecipIn,Conditions,Clouds,dailyrainin,SoftwareType,DateUTC
2013-06-07 07:52:00,48.0,39.0,30.16,NE,49,0.0,-999.0,72,-99.99,,,-99.99,,2013-06-07 13:52:00,
2013-06-07 08:02:00,50.0,40.0,30.16,NE,49,0.0,-999.0,69,-99.99,,,-99.99,,2013-06-07 14:02:00,
2013-06-07 08:22:00,52.0,41.0,30.15,NE,49,0.0,-999.0,65,-99.99,,,-99.99,,2013-06-07 14:22:00,
2013-06-07 08:32:00,54.0,42.0,30.15,East,89,0.0,-999.0,63,-99.99,,,-99.99,,2013-06-07 14:32:00,
2013-06-07 08:42:00,54.0,42.0,30.15,East,89,0.0,-999.0,63,-99.99,,,-99.99,,2013-06-07 14:42:00,
2013-06-07 08:52:00,55.0,41.0,30.17,East,89,0.0,-999.0,59,-99.99,,,-99.99,,2013-06-07 14:52:00,
2013-06-07 09:01:00,57.0,42.0,30.16,East,89,0.0,-999.0,58,-99.99,,,-99.99,,2013-06-07 15:01:00,
2013-06-07 09:22:00,56.0,41.0,30.16,WSW,243,1.0,-999.0,58,-99.99,,,-99.99,,2013-06-07 15:22:00,
2013-06-07 09:33:00,57.0,42.0,30.15,ESE,115,0.0,-999.0,57,-99.99,,,-99.99,,2013-06-07 15:33:00,
2013-06-07 09:43:00,57.0,42.0,30.15,ESE,115,0.0,-999.0,57,-99.99,,,-99.99,,2013-06-07 15:43:00,
2013-06-07 09:53:00,59.0,42.0,30.14,South,182,1.0,-999.0,53,-99.99,,,-99.99,,2013-06-07 15:53:00,
2013-06-07 10:03:00,59.0,42.0,30.14,SE,144,1.0,-999.0,54,-99.99,,,-99.99,,2013-06-07 16:03:00,
2013-06-07 10:12:00,59.0,42.0,30.14,SE,144,1.0,-999.0,54,-99.99,,,-99.99,,2013-06-07 16:12:00,
2013-06-07 10:22:00,61.0,42.0,30.13,West,259,2.0,-999.0,49,-99.99,,,-99.99,,2013-06-07 16:22:00,
2013-06-07 10:32:00,62.0,44.0,30.13,South,181,2.0,-999.0,51,-99.99,,,-99.99,,2013-06-07 16:32:00,
2013-06-07 10:42:00,62.0,44.0,30.13,South,181,2.0,-999.0,51,-99.99,,,-99.99,,2013-06-07 16:42:00,
2013-06-07 10:53:00,64.0,45.0,30.11,South,184,2.0,-999.0,50,-99.99,,,-99.99,,2013-06-07 16:53:00,
2013-06-07 11:01:00,65.0,45.0,30.11,SSE,163,2.0,-999.0,49,-99.99,,,-99.99,,2013-06-07 17:01:00,
2013-06-07 11:12:00,65.0,45.0,30.11,SSE,163,2.0,-999.0,49,-99.99,,,-99.99,,2013-06-07 17:12:00,
2013-06-07 11:22:00,66.0,45.0,30.10,South,182,3.0,-999.0,46,-99.99,,,-99.99,,2013-06-07 17:22:00,
2013-06-07 11:32:00,67.0,46.0,30.09,SSW,196,3.0,-999.0,46,-99.99,,,-99.99,,2013-06-07 17:32:00,
2013-06-07 11:42:00,67.0,46.0,30.09,SSW,196,3.0,-999.0,46,-99.99,,,-99.99,,2013-06-07 17:42:00,
2013-06-07 11:52:00,68.0,46.0,30.08,South,171,3.0,-999.0,45,-99.99,,,-99.99,,2013-06-07 17:52:00,
2013-06-07 12:12:00,70.0,48.0,30.07,SSE,164,5.0,-999.0,45,-99.99,,,-99.99,,2013-06-07 18:12:00,
2013-06-07 12:22:00,71.0,47.0,30.06,SSW,192,5.0,-999.0,43,-99.99,,,-99.99,,2013-06-07 18:22:00,
2013-06-07 12:42:00,73.0,47.0,30.07,SE,134,6.0,-999.0,40,-99.99,,,-99.99,,2013-06-07 18:42:00,
2013-06-07 13:02:00,76.0,45.0,30.06,WSW,238,7.0,-999.0,33,-99.99,,,-99.99,,2013-06-07 19:02:00,
2013-06-07 13:12:00,76.0,45.0,30.06,WSW,238,7.0,-999.0,33,-99.99,,,-99.99,,2013-06-07 19:12:00,
2013-06-07 13:32:00,76.0,41.0,30.04,WSW,241,7.0,-999.0,29,-99.99,,,-99.99,,2013-06-07 19:32:00,
2013-06-07 13:55:00,76.0,42.0,30.04,SSE,154,9.0,-999.0,30,-99.99,,,-99.99,,2013-06-07 19:55:00,
2013-06-07 14:02:00,74.0,41.0,30.03,West,274,10.0,-999.0,31,-99.99,,,-99.99,,2013-06-07 20:02:00,
2013-06-07 14:12:00,74.0,41.0,30.03,West,274,10.0,-999.0,31,-99.99,,,-99.99,,2013-06-07 20:12:00,
2013-06-07 14:22:00,73.0,41.0,30.03,SW,220,9.0,-999.0,32,-99.99,,,-99.99,,2013-06-07 20:22:00,
2013-06-07 14:33:00,73.0,41.0,30.03,SSW,211,6.0,-999.0,31,-99.99,,,-99.99,,2013-06-07 20:33:00,
2013-06-07 14:43:00,73.0,41.0,30.03,SSW,211,6.0,-999.0,31,-99.99,,,-99.99,,2013-06-07 20:43:00,
2013-06-07 14:57:00,76.0,42.0,30.03,WSW,241,7.0,-999.0,30,-99.99,,,-99.99,,2013-06-07 20:57:00,
2013-06-07 15:12:00,77.0,40.0,30.02,SSW,194,8.0,-999.0,27,-99.99,,,-99.99,,2013-06-07 21:12:00,
2013-06-07 15:23:00,76.0,41.0,30.03,West,261,10.0,-999.0,28,-99.99,,,-99.99,,2013-06-07 21:23:00,
2013-06-07 15:33:00,76.0,41.0,30.02,WSW,247,11.0,-999.0,28,-99.99,,,-99.99,,2013-06-07 21:33:00,
2013-06-07 15:43:00,76.0,41.0,30.02,WSW,247,11.0,-999.0,28,-99.99,,,-99.99,,2013-06-07 21:43:00,
2013-06-07 15:57:00,76.0,39.0,30.01,WSW,257,10.0,-999.0,26,-99.99,,,-99.99,,2013-06-07 21:57:00,
2013-06-07 16:03:00,77.0,37.0,30.04,West,274,10.0,-999.0,24,-99.99,,,-99.99,,2013-06-07 22:03:00,
2013-06-07 16:13:00,77.0,37.0,30.04,West,274,10.0,-999.0,24,-99.99,,,-99.99,,2013-06-07 22:13:00,
2013-06-07 16:33:00,77.0,36.0,30.02,SW,216,10.0,-999.0,23,-99.99,,,-99.99,,2013-06-07 22:33:00,
2013-06-07 16:43:00,77.0,36.0,30.02,SW,216,10.0,-999.0,23,-99.99,,,-99.99,,2013-06-07 22:43:00,
2013-06-07 16:57:00,77.0,36.0,30.02,SSW,199,10.0,-999.0,23,-99.99,,,-99.99,,2013-06-07 22:57:00,
2013-06-07 17:02:00,77.0,34.0,30.02,WNW,282,8.0,-999.0,21,-99.99,,,-99.99,,2013-06-07 23:02:00,
2013-06-07 17:32:00,77.0,37.0,30.00,SSW,194,6.0,-999.0,24,-99.99,,,-99.99,,2013-06-07 23:32:00,
2013-06-07 17:58:00,77.0,40.0,30.00,South,184,7.0,-999.0,27,-99.99,,,-99.99,,2013-06-07 23:58:00,
2013-06-07 18:12:00,76.0,40.0,29.99,South,186,8.0,-999.0,27,-99.99,,,-99.99,,2013-06-08 00:12:00,
2013-06-07 18:43:00,77.0,41.0,29.98,South,186,4.0,-999.0,28,-99.99,,,-99.99,,2013-06-08 00:43:00,
2013-06-07 18:56:00,76.0,41.0,29.97,South,183,6.0,-999.0,29,-99.99,,,-99.99,,2013-06-08 00:56:00,
2013-06-07 19:01:00,76.0,42.0,29.96,WSW,244,8.0,-999.0,30,-99.99,,,-99.99,,2013-06-08 01:01:00,
2013-06-07 19:12:00,76.0,42.0,29.96,WSW,244,8.0,-999.0,30,-99.99,,,-99.99,,2013-06-08 01:12:00,
2013-06-07 19:23:00,75.0,42.0,29.96,SSW,200,9.0,-999.0,31,-99.99,,,-99.99,,2013-06-08 01:23:00,
2013-06-07 19:32:00,74.0,42.0,29.96,SSW,193,5.0,-999.0,32,-99.99,,,-99.99,,2013-06-08 01:32:00,
2013-06-07 19:42:00,74.0,42.0,29.96,SSW,193,5.0,-999.0,32,-99.99,,,-99.99,,2013-06-08 01:42:00,
2013-06-07 19:58:00,73.0,41.0,29.95,SW,219,9.0,-999.0,32,-99.99,,,-99.99,,2013-06-08 01:58:00,
2013-06-07 20:23:00,69.0,43.0,29.95,SSW,198,2.0,-999.0,39,-99.99,,,-99.99,,2013-06-08 02:23:00,
2013-06-07 20:32:00,67.0,43.0,29.95,SSW,198,2.0,-999.0,41,-99.99,,,-99.99,,2013-06-08 02:32:00,
2013-06-07 20:43:00,66.0,42.0,29.94,SSW,208,3.0,-999.0,42,-99.99,,,-99.99,,2013-06-08 02:43:00,
2013-06-07 20:55:00,66.0,42.0,29.94,SSW,208,3.0,-999.0,42,-99.99,,,-99.99,,2013-06-08 02:55:00,
2013-06-07 21:02:00,66.0,41.0,29.93,SW,215,5.0,-999.0,40,-99.99,,,-99.99,,2013-06-08 03:02:00,
2013-06-07 21:12:00,66.0,41.0,29.93,SW,215,5.0,-999.0,40,-99.99,,,-99.99,,2013-06-08 03:12:00,
2013-06-07 21:23:00,65.0,41.0,29.93,South,186,1.0,-999.0,42,-99.99,,,-99.99,,2013-06-08 03:23:00,
2013-06-07 21:33:00,62.0,41.0,29.93,South,173,0.0,-999.0,46,-99.99,,,-99.99,,2013-06-08 03:33:00,
2013-06-07 21:56:00,62.0,42.0,29.93,SSE,165,0.0,-999.0,48,-99.99,,,-99.99,,2013-06-08 03:56:00,
2013-06-07 22:02:00,61.0,42.0,29.93,SSE,165,1.0,-999.0,49,-99.99,,,-99.99,,2013-06-08 04:02:00,
2013-06-07 22:22:00,61.0,41.0,29.93,SSE,157,1.0,-999.0,48,-99.99,,,-99.99,,2013-06-08 04:22:00,
2013-06-07 22:33:00,61.0,41.0,29.93,SSE,167,1.0,-999.0,47,-99.99,,,-99.99,,2013-06-08 04:33:00,
2013-06-07 22:42:00,61.0,41.0,29.93,SSE,167,1.0,-999.0,47,-99.99,,,-99.99,,2013-06-08 04:42:00,
2013-06-07 22:53:00,62.0,40.0,29.93,South,172,3.0,-999.0,44,-99.99,,,-99.99,,2013-06-08 04:53:00,
2013-06-07 23:02:00,61.0,40.0,29.92,South,169,1.0,-999.0,45,-99.99,,,-99.99,,2013-06-08 05:02:00,
2013-06-07 23:12:00,61.0,40.0,29.92,South,169,1.0,-999.0,45,-99.99,,,-99.99,,2013-06-08 05:12:00,
2013-06-07 23:22:00,60.0,39.0,29.92,SSE,166,1.0,-999.0,46,-99.99,,,-99.99,,2013-06-08 05:22:00,
2013-06-07 23:32:00,58.0,39.0,29.91,SSE,148,2.0,-999.0,49,-99.99,,,-99.99,,2013-06-08 05:32:00,
2013-06-07 23:42:00,58.0,39.0,29.91,SSE,148,2.0,-999.0,49,-99.99,,,-99.99,,2013-06-08 05:42:00,
2013-06-07 23:52:00,58.0,38.0,29.92,South,171,2.0,-999.0,48,-99.99,,,-99.99,,2013-06-08 05:52:00,